Time;durP1;ratioP1;P1;durP2;ratioP2;P2;SDS_P1;SDS_P2;PMS_P1;PMS_P2;Temp;Humidity;BMP_temperature;BMP_pressure;BME280_temperature;BME280_humidity;BME280_pressure;Samples;Min_cycle;Max_cycle;Signal;HPM_P1;HPM_P2
2024/01/25 00:01:10;;;;;;;12.27;6.40;;;;;;;12.71;64.83;97504.59;6155058;23;20365;-26
2024/01/25 00:03:36;;;;;;;11.60;7.65;;;;;;;12.84;64.32;97499.31;6154696;23;20088;-26
2024/01/25 00:06:02;;;;;;;10.45;6.28;;;;;;;12.89;63.52;97493.38;6154556;23;20080;-27
2024/01/25 00:08:27;;;;;;;12.05;6.65;;;;;;;12.64;64.16;97487.59;6154766;23;20002;-26
2024/01/25 00:10:53;;;;;;;12.75;7.03;;;;;;;12.87;63.17;97493.03;6154475;23;20056;-26
2024/01/25 00:13:18;;;;;;;11.93;6.85;;;;;;;12.80;63.42;97485.75;6154801;23;20397;-26
2024/01/25 00:15:44;;;;;;;10.65;6.20;;;;;;;12.75;63.77;97485.44;6154628;23;20017;-26
2024/01/25 00:18:09;;;;;;;11.85;6.57;;;;;;;12.88;63.07;97478.22;6154902;23;20067;-26
2024/01/25 00:20:35;;;;;;;9.98;6.35;;;;;;;12.59;64.26;97483.41;6155677;23;20483;-26
2024/01/25 00:23:01;;;;;;;10.98;6.85;;;;;;;12.67;63.86;97478.59;6156403;23;20013;-26
2024/01/25 00:25:26;;;;;;;12.95;7.47;;;;;;;12.75;63.63;97480.78;6156790;23;20069;-26
2024/01/25 00:27:52;;;;;;;13.60;7.53;;;;;;;12.50;64.38;97483.91;6156221;23;20372;-26
2024/01/25 00:30:18;;;;;;;10.50;7.35;;;;;;;12.63;63.87;97477.88;6156623;23;20009;-26
2024/01/25 00:32:43;;;;;;;11.40;7.80;;;;;;;12.71;63.99;97487.47;6156596;23;20542;-26
2024/01/25 00:35:10;;;;;;;15.25;8.57;;;;;;;12.77;63.54;97499.41;6155852;23;20012;-27
2024/01/25 00:37:37;;;;;;;13.50;8.25;;;;;;;12.78;63.34;97492.78;6156257;23;20005;-26
2024/01/25 00:40:03;;;;;;;13.32;8.75;;;;;;;12.62;64.29;97481.78;6129999;23;19997;-26
2024/01/25 00:42:30;;;;;;;14.20;9.15;;;;;;;12.89;63.67;97475.09;6156260;23;20017;-26
2024/01/25 00:44:56;;;;;;;17.25;9.95;;;;;;;12.87;63.18;97463.84;6156509;23;20303;-26
2024/01/25 00:47:23;;;;;;;15.55;9.52;;;;;;;12.71;64.63;97468.44;6156066;23;20032;-26
2024/01/25 00:49:49;;;;;;;15.25;9.43;;;;;;;12.77;64.51;97466.75;6156370;23;20009;-26
2024/01/25 00:52:14;;;;;;;17.33;9.48;;;;;;;12.91;64.18;97464.56;6156247;23;20009;-26
2024/01/25 00:54:40;;;;;;;18.23;9.70;;;;;;;12.84;64.56;97463.94;6156078;23;20048;-26
2024/01/25 00:57:06;;;;;;;14.50;9.15;;;;;;;12.90;64.19;97471.19;6156435;23;20084;-26
2024/01/25 00:59:32;;;;;;;17.70;10.45;;;;;;;12.84;64.29;97463.94;6156202;23;20008;-26
2024/01/25 01:01:59;;;;;;;14.43;9.38;;;;;;;13.11;63.55;97464.56;6156300;23;20006;-26
2024/01/25 01:04:25;;;;;;;16.75;8.45;;;;;;;13.04;63.74;97475.63;6129566;23;20149;-26
2024/01/25 01:06:51;;;;;;;15.75;9.70;;;;;;;12.99;63.95;97465.19;6156330;23;20009;-26
2024/01/25 01:09:17;;;;;;;18.10;9.98;;;;;;;12.82;64.53;97458.91;6155927;23;20044;-26
2024/01/25 01:11:43;;;;;;;14.05;8.30;;;;;;;12.76;64.91;97459.78;6155829;23;20001;-26
2024/01/25 01:14:08;;;;;;;15.77;9.68;;;;;;;12.79;64.87;97458.94;6155954;23;20005;-26
2024/01/25 01:16:35;;;;;;;16.90;9.40;;;;;;;12.94;64.69;97471.13;6156176;23;20328;-26
2024/01/25 01:19:05;;;;;;;14.45;9.52;;;;;;;13.07;63.39;97463.91;6156078;23;20432;-26
2024/01/25 01:21:31;;;;;;;14.90;10.13;;;;;;;13.10;63.75;97456.84;6156107;23;20009;-26
2024/01/25 01:23:57;;;;;;;17.40;10.27;;;;;;;13.03;63.74;97463.19;6155824;23;20079;-26
2024/01/25 01:26:23;;;;;;;15.50;9.95;;;;;;;13.06;63.79;97467.81;6155760;23;19997;-26
2024/01/25 01:28:48;;;;;;;18.88;10.65;;;;;;;13.01;64.21;97460.09;6155863;23;20077;-26
2024/01/25 01:31:14;;;;;;;18.23;10.00;;;;;;;13.04;63.61;97467.44;6155540;23;20032;-26
2024/01/25 01:33:39;;;;;;;16.20;9.85;;;;;;;12.98;64.39;97466.41;6130133;23;20006;-26
2024/01/25 01:36:05;;;;;;;17.70;10.10;;;;;;;12.96;64.23;97463.31;6155602;23;20341;-26
2024/01/25 01:38:30;;;;;;;17.17;9.80;;;;;;;12.81;64.77;97449.19;6155954;23;20009;-26
2024/01/25 01:40:56;;;;;;;18.02;10.18;;;;;;;13.03;64.34;97462.41;6129558;23;20008;-26
2024/01/25 01:43:23;;;;;;;18.17;11.05;;;;;;;12.98;64.24;97455.50;6155620;23;20009;-26
2024/01/25 01:45:49;;;;;;;14.63;9.30;;;;;;;13.03;64.43;97451.53;6155682;23;20310;-26
2024/01/25 01:48:15;;;;;;;13.50;8.98;;;;;;;13.01;64.31;97454.66;6155782;23;20067;-26
2024/01/25 01:50:43;;;;;;;15.15;9.95;;;;;;;12.99;64.64;97446.13;6155786;23;20335;-27
2024/01/25 01:53:10;;;;;;;13.75;9.27;;;;;;;13.08;63.97;97443.66;6155829;23;20013;-27
2024/01/25 01:55:36;;;;;;;15.52;9.23;;;;;;;13.03;63.95;97446.84;6155485;23;20033;-26
2024/01/25 01:58:02;;;;;;;13.68;8.32;;;;;;;12.84;64.56;97440.19;6155883;23;20008;-26
2024/01/25 02:00:29;;;;;;;18.38;8.85;;;;;;;13.03;64.05;97446.84;6155403;23;20005;-26
2024/01/25 02:02:54;;;;;;;13.60;8.20;;;;;;;13.00;64.34;97442.22;6156012;23;20075;-26
2024/01/25 02:05:20;;;;;;;15.25;8.30;;;;;;;12.95;64.09;97427.16;6155409;23;20002;-26
2024/01/25 02:07:45;;;;;;;12.63;8.45;;;;;;;13.09;63.56;97423.41;6155550;23;20016;-26
2024/01/25 02:10:11;;;;;;;15.10;8.50;;;;;;;12.98;63.95;97420.13;6155657;23;20008;-26
2024/01/25 02:12:37;;;;;;;14.25;8.60;;;;;;;12.79;64.50;97415.41;6155194;23;20025;-26
2024/01/25 02:15:03;;;;;;;19.02;11.07;;;;;;;12.93;63.93;97415.13;6155622;23;20008;-26
2024/01/25 02:17:30;;;;;;;16.20;9.25;;;;;;;12.86;64.30;97407.84;6155703;23;20025;-26
2024/01/25 02:19:55;;;;;;;17.35;9.40;;;;;;;12.82;64.45;97412.63;6155080;23;20016;-27
2024/01/25 02:22:20;;;;;;;16.70;9.75;;;;;;;12.99;64.04;97404.50;6155435;23;20005;-26
2024/01/25 02:24:46;;;;;;;15.52;9.35;;;;;;;12.95;64.08;97407.31;6155204;23;20001;-26
2024/01/25 02:27:11;;;;;;;15.65;8.88;;;;;;;12.97;64.41;97391.34;6155423;23;20056;-26
2024/01/25 02:29:37;;;;;;;19.70;9.13;;;;;;;12.90;64.63;97388.75;6155558;23;20020;-27
2024/01/25 02:32:03;;;;;;;16.35;9.68;;;;;;;12.94;64.01;97400.34;6154971;23;20332;-26
2024/01/25 02:34:28;;;;;;;16.27;10.00;;;;;;;12.78;65.01;97394.81;6155126;23;20416;-26
2024/01/25 02:36:54;;;;;;;16.58;9.10;;;;;;;12.94;63.92;97390.22;6155332;23;20009;-26
2024/01/25 02:39:19;;;;;;;17.98;9.98;;;;;;;12.88;64.42;97385.66;6155000;23;20035;-26
2024/01/25 02:41:45;;;;;;;17.00;9.90;;;;;;;12.82;64.62;97376.47;6155078;23;20017;-26
2024/01/25 02:44:11;;;;;;;17.25;10.70;;;;;;;12.90;64.05;97362.28;6154932;23;20041;-26
2024/01/25 02:46:38;;;;;;;19.00;11.85;;;;;;;12.73;64.27;97365.38;6155587;23;20021;-26
2024/01/25 02:49:04;;;;;;;18.42;11.10;;;;;;;12.92;63.54;97356.44;6155398;23;20033;-26
2024/01/25 02:51:29;;;;;;;17.85;11.40;;;;;;;12.68;64.22;97349.50;6154922;23;20001;-26
2024/01/25 02:53:55;;;;;;;16.40;11.32;;;;;;;12.74;63.87;97355.97;6155305;23;20005;-26
2024/01/25 02:56:20;;;;;;;16.23;11.38;;;;;;;12.83;63.68;97348.06;6154886;23;20009;-26
2024/01/25 02:58:45;;;;;;;18.77;12.07;;;;;;;12.72;63.97;97350.22;6155098;23;20013;-26
2024/01/25 03:01:11;;;;;;;18.23;12.23;;;;;;;12.53;64.14;97347.03;6155103;23;20029;-26
2024/01/25 03:03:36;;;;;;;20.95;12.73;;;;;;;12.67;63.76;97340.56;6155023;23;20427;-27
2024/01/25 03:06:02;;;;;;;19.65;12.80;;;;;;;12.69;63.83;97348.31;6155313;23;20001;-26
2024/01/25 03:08:28;;;;;;;18.67;12.20;;;;;;;12.77;63.44;97325.22;6154913;23;20005;-25
2024/01/25 03:10:53;;;;;;;19.73;12.15;;;;;;;12.82;63.04;97333.69;6154905;23;20001;-26
2024/01/25 03:13:19;;;;;;;23.20;13.70;;;;;;;12.68;63.10;97327.72;6155370;23;20006;-26
2024/01/25 03:15:44;;;;;;;20.60;13.18;;;;;;;12.65;63.05;97326.59;6154485;23;20032;-26
2024/01/25 03:18:10;;;;;;;28.42;13.90;;;;;;;12.66;63.50;97324.66;6154890;23;20017;-26
2024/01/25 03:20:36;;;;;;;18.42;11.70;;;;;;;12.64;63.31;97324.31;6155054;23;20008;-26
2024/01/25 03:23:02;;;;;;;20.38;12.57;;;;;;;12.73;63.11;97321.81;6154750;23;20001;-26
2024/01/25 03:25:28;;;;;;;19.17;12.15;;;;;;;12.71;62.72;97329.63;6154983;23;20008;-27
2024/01/25 03:27:53;;;;;;;20.83;12.25;;;;;;;12.67;63.16;97337.84;6154537;23;20078;-26
2024/01/25 03:30:19;;;;;;;21.33;12.70;;;;;;;12.66;63.13;97335.53;6154895;23;20002;-26
2024/01/25 03:32:47;;;;;;;18.75;12.88;;;;;;;12.53;63.67;97336.16;6154630;23;20005;-26
2024/01/25 03:35:12;;;;;;;19.90;12.98;;;;;;;12.64;62.94;97327.03;6154659;23;20009;-26
2024/01/25 03:37:38;;;;;;;20.42;12.85;;;;;;;12.59;63.40;97334.50;6154716;23;20010;-26
2024/01/25 03:40:04;;;;;;;19.30;12.52;;;;;;;12.79;63.02;97325.56;6154854;23;20005;-26
2024/01/25 03:42:30;;;;;;;18.25;11.63;;;;;;;12.55;63.38;97331.06;6154548;23;20067;-26
2024/01/25 03:44:56;;;;;;;19.90;13.05;;;;;;;12.64;63.25;97327.78;6154946;23;20331;-26
2024/01/25 03:47:21;;;;;;;19.65;12.82;;;;;;;12.68;63.01;97320.34;6154667;23;20006;-26
2024/01/25 03:49:47;;;;;;;15.32;11.70;;;;;;;12.85;62.48;97337.53;6154813;23;20324;-27
2024/01/25 03:52:13;;;;;;;19.85;13.40;;;;;;;12.70;62.97;97325.38;6154995;23;20060;-26
2024/01/25 03:54:38;;;;;;;20.52;13.02;;;;;;;12.80;62.94;97325.16;6155033;23;20017;-26
2024/01/25 03:57:04;;;;;;;20.65;13.18;;;;;;;12.70;63.07;97333.53;6156826;23;20005;-26
2024/01/25 03:59:30;;;;;;;21.65;13.45;;;;;;;12.83;62.42;97326.28;6156487;23;20075;-26
2024/01/25 04:01:55;;;;;;;19.20;12.55;;;;;;;12.69;63.03;97332.00;6156870;23;20001;-26
2024/01/25 04:04:21;;;;;;;21.75;13.40;;;;;;;12.58;63.02;97329.47;6156888;23;20012;-26
2024/01/25 04:06:47;;;;;;;19.65;12.45;;;;;;;12.61;63.18;97330.59;6156876;23;20005;-26
2024/01/25 04:09:13;;;;;;;23.48;12.88;;;;;;;12.73;62.56;97329.97;6156572;23;20029;-26
2024/01/25 04:11:39;;;;;;;22.05;13.57;;;;;;;12.64;63.21;97314.19;6156503;23;20467;-26
2024/01/25 04:14:05;;;;;;;18.90;13.07;;;;;;;12.82;62.72;97314.63;6156941;23;20032;-26
2024/01/25 04:16:30;;;;;;;19.95;12.18;;;;;;;12.80;62.05;97302.59;6156690;23;20045;-26
2024/01/25 04:18:56;;;;;;;20.13;12.20;;;;;;;12.67;62.67;97294.31;6156247;23;20052;-26
2024/01/25 04:21:22;;;;;;;19.90;12.20;;;;;;;12.58;63.11;97324.81;6156469;23;20441;-26
2024/01/25 04:23:47;;;;;;;17.05;11.98;;;;;;;12.72;63.16;97303.94;6156506;23;20076;-26
2024/01/25 04:26:14;;;;;;;17.20;12.02;;;;;;;12.69;62.76;97296.63;6156434;23;20770;-26
2024/01/25 04:28:40;;;;;;;19.25;12.18;;;;;;;12.64;63.17;97316.13;6156496;23;20006;-26
2024/01/25 04:31:05;;;;;;;20.38;12.10;;;;;;;12.68;62.52;97295.06;6156249;23;20309;-26
2024/01/25 04:33:30;;;;;;;19.98;12.13;;;;;;;12.64;62.95;97313.41;6156546;23;20005;-26
2024/01/25 04:35:56;;;;;;;22.30;12.85;;;;;;;12.73;62.46;97324.53;6156243;23;20005;-26
2024/01/25 04:38:21;;;;;;;20.13;12.52;;;;;;;12.75;62.71;97322.91;6156190;23;20005;-26
2024/01/25 04:40:47;;;;;;;20.92;12.05;;;;;;;12.71;62.86;97321.47;6156394;23;20009;-26
2024/01/25 04:43:13;;;;;;;18.55;11.45;;;;;;;12.88;61.97;97321.09;6156421;23;20012;-26
2024/01/25 04:45:39;;;;;;;22.13;13.15;;;;;;;12.57;62.97;97323.25;6156129;23;20002;-26
2024/01/25 04:48:05;;;;;;;21.10;12.60;;;;;;;12.62;62.73;97315.78;6156412;23;20420;-26
2024/01/25 04:50:30;;;;;;;21.05;12.25;;;;;;;12.71;62.92;97321.47;6130055;23;20017;-26
2024/01/25 04:52:56;;;;;;;19.00;11.43;;;;;;;12.80;62.39;97297.16;6156217;23;20064;-26
2024/01/25 04:55:21;;;;;;;18.52;12.15;;;;;;;12.62;62.52;97319.28;6156261;23;20005;-26
2024/01/25 04:57:47;;;;;;;21.02;12.20;;;;;;;12.57;62.79;97333.38;6156543;23;20096;-26
2024/01/25 05:00:14;;;;;;;22.33;12.98;;;;;;;12.51;63.24;97329.59;6156435;23;20009;-26
2024/01/25 05:02:39;;;;;;;18.73;12.73;;;;;;;12.45;63.26;97334.00;6155821;23;20009;-26
2024/01/25 05:05:04;;;;;;;19.70;12.70;;;;;;;12.64;62.63;97351.50;6156281;23;20002;-26
2024/01/25 05:07:30;;;;;;;23.23;12.60;;;;;;;12.57;62.75;97349.72;6130451;23;20002;-26
2024/01/25 05:09:55;;;;;;;21.05;12.63;;;;;;;12.74;62.08;97347.81;6156801;23;20010;-26
2024/01/25 05:12:21;;;;;;;20.63;11.85;;;;;;;12.55;62.61;97346.63;6156806;23;20084;-26
2024/01/25 05:14:46;;;;;;;22.80;12.70;;;;;;;12.77;62.30;97353.19;6156617;23;20420;-27
2024/01/25 05:17:12;;;;;;;24.33;13.85;;;;;;;12.63;62.41;97352.69;6157150;23;20470;-26
2024/01/25 05:19:37;;;;;;;18.65;12.75;;;;;;;12.77;61.89;97341.53;6156652;23;20005;-27
2024/01/25 05:22:06;;;;;;;20.73;12.68;;;;;;;12.77;61.92;97355.16;6156328;23;20495;-26
2024/01/25 05:24:32;;;;;;;22.42;13.32;;;;;;;12.92;61.32;97353.69;6156546;23;20005;-26
2024/01/25 05:26:58;;;;;;;18.30;12.27;;;;;;;12.71;62.33;97344.00;6155005;23;20320;-27
2024/01/25 05:29:23;;;;;;;19.02;12.05;;;;;;;12.72;62.32;97344.78;6156632;23;20001;-26
2024/01/25 05:31:49;;;;;;;23.33;12.27;;;;;;;12.82;61.49;97332.91;6156463;23;20006;-26
2024/01/25 05:34:15;;;;;;;20.55;12.35;;;;;;;12.70;61.79;97331.56;6156354;23;20010;-26
2024/01/25 05:36:41;;;;;;;21.98;13.10;;;;;;;12.91;61.36;97346.72;6156773;23;20081;-26
2024/01/25 05:39:07;;;;;;;21.23;11.57;;;;;;;12.70;61.87;97328.09;6156581;23;20006;-26
2024/01/25 05:41:33;;;;;;;19.50;12.25;;;;;;;12.84;61.40;97333.25;6156500;23;20063;-26
2024/01/25 05:43:59;;;;;;;20.85;10.80;;;;;;;12.90;61.13;97334.28;6156740;23;20340;-26
2024/01/25 05:46:26;;;;;;;17.73;10.82;;;;;;;12.97;61.10;97336.88;6156406;23;20061;-26
2024/01/25 05:48:52;;;;;;;19.38;11.65;;;;;;;12.74;61.57;97343.16;6156675;23;20024;-26
2024/01/25 05:51:17;;;;;;;22.55;11.35;;;;;;;12.52;62.89;97337.34;6156226;23;20324;-27
2024/01/25 05:53:43;;;;;;;26.45;13.63;;;;;;;12.83;61.82;97339.88;6156632;23;20435;-26
2024/01/25 05:56:08;;;;;;;33.22;18.10;;;;;;;12.67;62.24;97340.56;6156340;23;20423;-26
2024/01/25 05:58:34;;;;;;;38.15;17.85;;;;;;;12.79;61.69;97333.72;6156085;23;20005;-26
2024/01/25 06:00:59;;;;;;;50.35;24.85;;;;;;;12.78;62.16;97330.25;6156310;23;20127;-26
2024/01/25 06:03:25;;;;;;;49.97;24.23;;;;;;;12.99;61.14;97339.16;6156237;23;20450;-26
2024/01/25 06:05:50;;;;;;;43.97;23.50;;;;;;;12.67;62.35;97337.06;6156107;23;20359;-26
2024/01/25 06:08:16;;;;;;;36.42;18.92;;;;;;;12.90;61.56;97334.28;6156199;23;20002;-26
2024/01/25 06:10:42;;;;;;;34.65;15.55;;;;;;;12.78;62.32;97338.41;6156187;23;20056;-26
2024/01/25 06:13:08;;;;;;;24.67;12.57;;;;;;;12.66;63.04;97340.97;6156230;23;20001;-26
2024/01/25 06:15:34;;;;;;;21.98;10.18;;;;;;;12.91;61.94;97346.72;6156136;23;20009;-26
2024/01/25 06:17:59;;;;;;;24.58;11.52;;;;;;;12.98;62.20;97343.88;6155474;23;20013;-26
2024/01/25 06:20:24;;;;;;;25.00;11.32;;;;;;;12.99;61.92;97339.16;6156256;23;20008;-26
2024/01/25 06:22:50;;;;;;;19.85;9.88;;;;;;;12.97;61.73;97338.84;6155726;23;20009;-26
2024/01/25 06:25:15;;;;;;;22.23;12.02;;;;;;;12.92;61.56;97334.66;6156080;23;19997;-27
2024/01/25 06:27:41;;;;;;;59.65;29.30;;;;;;;12.75;62.70;97338.47;6155992;23;20379;-26
2024/01/25 06:30:07;;;;;;;68.82;36.60;;;;;;;12.89;62.26;97330.81;6156094;23;20007;-26
2024/01/25 06:32:32;;;;;;;66.30;35.15;;;;;;;12.87;61.81;97333.16;6156027;23;20081;-26
2024/01/25 06:34:58;;;;;;;46.45;26.60;;;;;;;12.71;62.01;97348.69;6155825;23;20482;-26
2024/01/25 06:37:23;;;;;;;31.25;17.33;;;;;;;12.73;62.59;97346.31;6155921;23;20084;-26
2024/01/25 06:39:48;;;;;;;33.45;15.38;;;;;;;12.76;61.97;97342.72;6156177;23;20088;-26
2024/01/25 06:42:14;;;;;;;21.13;13.55;;;;;;;12.89;61.46;97349.09;6155530;23;20100;-26
2024/01/25 06:44:39;;;;;;;19.50;12.77;;;;;;;12.79;61.82;97345.38;6155742;23;20013;-26
2024/01/25 06:47:05;;;;;;;21.27;12.40;;;;;;;12.97;61.12;97347.00;6155798;23;20021;-26
2024/01/25 06:49:31;;;;;;;24.92;13.82;;;;;;;12.83;61.40;97353.50;6155646;23;20024;-26
2024/01/25 06:51:56;;;;;;;21.42;13.45;;;;;;;12.98;61.06;97345.81;6155888;23;20032;-26
2024/01/25 06:54:22;;;;;;;20.48;13.05;;;;;;;12.84;61.41;97339.47;6155813;23;19998;-26
2024/01/25 06:56:47;;;;;;;22.77;12.95;;;;;;;12.84;61.41;97344.16;6156005;23;20033;-26
2024/01/25 06:59:13;;;;;;;23.48;11.85;;;;;;;12.67;61.96;97342.53;6155675;23;20011;-26
2024/01/25 07:01:39;;;;;;;21.65;10.30;;;;;;;12.81;61.30;97361.31;6155474;23;20076;-26
2024/01/25 07:04:04;;;;;;;18.45;10.90;;;;;;;12.86;61.28;97355.38;6155948;23;20025;-26
2024/01/25 07:06:30;;;;;;;18.00;9.65;;;;;;;12.88;61.15;97359.22;6155381;23;20006;-26
2024/01/25 07:08:56;;;;;;;22.30;9.95;;;;;;;12.80;61.57;97357.06;6155948;23;20301;-26
2024/01/25 07:11:21;;;;;;;26.95;11.65;;;;;;;12.89;61.23;97376.31;6155696;23;20005;-26
2024/01/25 07:13:47;;;;;;;14.73;9.65;;;;;;;12.90;61.29;97377.84;6155555;23;20006;-26
2024/01/25 07:16:12;;;;;;;17.65;10.70;;;;;;;12.96;61.35;97370.75;6155615;23;20037;-26
2024/01/25 07:18:38;;;;;;;18.30;10.15;;;;;;;12.87;61.52;97365.06;6155967;23;20006;-26
2024/01/25 07:21:03;;;;;;;20.67;10.43;;;;;;;12.79;61.67;97366.41;6155419;23;20423;-26
2024/01/25 07:23:30;;;;;;;14.77;8.75;;;;;;;12.97;61.59;97358.66;6155578;23;20420;-26
2024/01/25 07:25:55;;;;;;;19.02;8.90;;;;;;;12.77;62.33;97358.66;6155358;23;20302;-26
2024/01/25 07:28:21;;;;;;;15.48;8.15;;;;;;;12.74;62.41;97354.03;6155593;23;20067;-26
2024/01/25 07:30:47;;;;;;;14.50;7.93;;;;;;;13.05;61.77;97346.44;6129301;23;20340;-26
2024/01/25 07:33:13;;;;;;;16.60;7.57;;;;;;;12.89;62.15;97352.56;6155348;23;20005;-26
2024/01/25 07:35:45;;;;;;;13.25;7.25;;;;;;;12.79;62.21;97352.78;6155390;23;20008;-26
2024/01/25 07:38:14;;;;;;;16.23;7.60;;;;;;;12.94;62.15;97354.81;6155369;23;20080;-26
2024/01/25 07:40:39;;;;;;;14.70;6.72;;;;;;;12.94;62.37;97351.34;6155377;23;20006;-26
2024/01/25 07:43:05;;;;;;;17.02;7.32;;;;;;;12.96;61.90;97348.97;6155339;23;20458;-27
2024/01/25 07:45:31;;;;;;;12.75;6.97;;;;;;;13.12;61.76;97346.28;6155575;23;20028;-26
2024/01/25 07:47:57;;;;;;;11.63;6.68;;;;;;;12.91;62.17;97344.00;6155221;23;20032;-26
2024/01/25 07:50:22;;;;;;;10.35;6.95;;;;;;;13.03;62.08;97348.03;6155329;23;20005;-26
2024/01/25 07:52:49;;;;;;;12.07;6.97;;;;;;;13.06;62.12;97349.94;6155659;23;20012;-26
2024/01/25 07:55:15;;;;;;;11.40;6.97;;;;;;;12.98;62.07;97352.03;6155364;23;20009;-26
2024/01/25 07:57:41;;;;;;;13.93;6.60;;;;;;;13.08;61.78;97356.50;6155345;23;20013;-26
2024/01/25 08:00:08;;;;;;;12.35;6.07;;;;;;;13.05;62.21;97356.56;6155359;23;20037;-26
2024/01/25 08:02:34;;;;;;;12.90;6.45;;;;;;;12.89;62.80;97359.97;6155060;23;20005;-26
2024/01/25 08:05:00;;;;;;;10.27;6.22;;;;;;;13.09;61.98;97360.75;6155535;23;20060;-26
2024/01/25 08:07:25;;;;;;;11.55;6.82;;;;;;;13.08;62.31;97356.50;6155221;23;20013;-26
2024/01/25 08:09:52;;;;;;;13.60;6.60;;;;;;;13.06;62.17;97361.59;6155031;23;20092;-26
2024/01/25 08:12:18;;;;;;;12.50;6.78;;;;;;;13.17;61.80;97362.16;6155446;23;20001;-26
2024/01/25 08:14:44;;;;;;;11.60;6.82;;;;;;;12.92;62.85;97362.63;6155110;23;20013;-26
2024/01/25 08:17:09;;;;;;;11.60;5.95;;;;;;;13.10;62.26;97356.84;6155356;23;20085;-26
2024/01/25 08:19:35;;;;;;;12.05;6.03;;;;;;;13.01;63.12;97351.19;6155253;23;20001;-26
2024/01/25 08:22:00;;;;;;;13.80;6.88;;;;;;;13.17;62.22;97355.94;6155182;23;20005;-26
2024/01/25 08:24:26;;;;;;;11.93;7.43;;;;;;;13.20;61.98;97363.28;6155586;23;20028;-26
2024/01/25 08:26:51;;;;;;;12.85;6.80;;;;;;;13.18;62.26;97358.25;6155167;23;20005;-26
2024/01/25 08:29:17;;;;;;;11.02;6.53;;;;;;;13.13;62.86;97364.16;6155289;23;20002;-26
2024/01/25 08:31:42;;;;;;;11.10;5.68;;;;;;;13.15;63.12;97358.31;6155246;23;20060;-26
2024/01/25 08:34:07;;;;;;;10.75;6.35;;;;;;;13.20;62.59;97358.63;6155030;23;20005;-26
2024/01/25 08:36:33;;;;;;;11.00;5.68;;;;;;;13.17;62.73;97366.84;6155017;23;20075;-26
2024/01/25 08:38:58;;;;;;;12.38;6.07;;;;;;;13.09;63.46;97362.72;6155331;23;20001;-26
2024/01/25 08:41:24;;;;;;;9.18;5.30;;;;;;;13.09;63.31;97358.03;6155612;23;20026;-26
2024/01/25 08:43:50;;;;;;;12.20;5.65;;;;;;;13.08;63.35;97358.44;6157160;23;20002;-26
2024/01/25 08:46:15;;;;;;;12.15;5.60;;;;;;;13.15;63.14;97366.50;6156831;23;20039;-26
2024/01/25 08:48:41;;;;;;;12.98;4.93;;;;;;;13.03;63.89;97359.69;6157088;23;20435;-26
2024/01/25 08:51:08;;;;;;;12.20;5.25;;;;;;;13.18;63.26;97368.38;6157103;23;20006;-26
2024/01/25 08:53:33;;;;;;;9.95;4.32;;;;;;;13.33;62.51;97366.91;6157076;23;20006;-26
2024/01/25 08:55:59;;;;;;;8.55;4.50;;;;;;;13.11;63.75;97366.53;6156929;23;20017;-26
2024/01/25 08:58:25;;;;;;;10.98;4.88;;;;;;;13.15;63.10;97367.25;6157069;23;20011;-26
2024/01/25 09:00:50;;;;;;;10.38;4.68;;;;;;;13.06;63.99;97372.50;6157200;23;20080;-26
2024/01/25 09:03:16;;;;;;;13.73;5.00;;;;;;;13.14;63.68;97379.34;6157148;23;20066;-26
2024/01/25 09:05:44;;;;;;;9.57;4.38;;;;;;;13.37;62.59;97377.72;6156493;23;20029;-26
2024/01/25 09:08:13;;;;;;;7.43;3.38;;;;;;;13.26;62.78;97370.53;6157062;23;20005;-26
2024/01/25 09:10:40;;;;;;;10.30;3.90;;;;;;;13.52;61.74;97373.50;6156414;23;20432;-26
2024/01/25 09:13:06;;;;;;;10.27;4.03;;;;;;;13.36;63.05;97365.28;6156735;23;20312;-26
2024/01/25 09:15:31;;;;;;;10.10;4.13;;;;;;;13.36;62.79;97365.28;6156596;23;20059;-26
2024/01/25 09:17:57;;;;;;;5.72;2.92;;;;;;;13.29;62.37;97366.97;6156604;23;20006;-26
2024/01/25 09:20:23;;;;;;;9.50;3.50;;;;;;;13.34;62.67;97368.44;6156709;23;20006;-26
2024/01/25 09:22:48;;;;;;;8.23;3.28;;;;;;;13.57;61.76;97371.06;6156425;23;20073;-26
2024/01/25 09:25:13;;;;;;;14.50;3.72;;;;;;;13.44;62.50;97369.41;6156570;23;20005;-27
2024/01/25 09:27:39;;;;;;;12.65;3.17;;;;;;;13.53;61.58;97373.09;6156577;23;20332;-26
2024/01/25 09:30:08;;;;;;;9.90;3.28;;;;;;;13.41;62.60;97381.13;6156656;23;20009;-26
2024/01/25 09:32:34;;;;;;;9.07;3.78;;;;;;;13.27;62.60;97379.47;6156481;23;20051;-26
2024/01/25 09:34:59;;;;;;;6.13;3.55;;;;;;;13.18;63.31;97390.19;6156308;23;20032;-26
2024/01/25 09:37:25;;;;;;;5.47;3.30;;;;;;;13.44;62.30;97391.22;6156522;23;20001;-26
2024/01/25 09:39:54;;;;;;;9.35;3.03;;;;;;;13.40;62.41;97385.81;6156550;23;20010;-26
2024/01/25 09:42:19;;;;;;;10.52;3.05;;;;;;;13.37;62.70;97383.16;6156041;23;20022;-26
2024/01/25 09:44:45;;;;;;;6.70;2.92;;;;;;;13.50;62.67;97384.06;6156263;23;20048;-26
2024/01/25 09:47:11;;;;;;;12.75;3.22;;;;;;;13.45;62.52;97392.75;6156298;23;20038;-27
2024/01/25 09:49:37;;;;;;;7.47;3.08;;;;;;;13.48;61.83;97394.59;6156377;23;20321;-27
2024/01/25 09:52:04;;;;;;;6.40;2.90;;;;;;;13.43;62.01;97395.88;6156074;23;20005;-26
2024/01/25 09:54:36;;;;;;;8.63;2.67;;;;;;;13.30;62.62;97395.75;6155622;23;20001;-26
2024/01/25 09:57:12;;;;;;;10.30;2.85;;;;;;;13.52;61.38;97389.84;6156497;23;20124;-26
2024/01/25 09:59:37;;;;;;;7.20;2.80;;;;;;;13.49;61.69;97386.00;6156078;23;20052;-26
2024/01/25 10:02:03;;;;;;;7.07;2.15;;;;;;;13.60;61.15;97383.81;6156255;23;20005;-26
2024/01/25 10:04:29;;;;;;;8.23;2.15;;;;;;;13.33;61.95;97385.22;6156233;23;20017;-26
2024/01/25 10:06:56;;;;;;;5.45;1.70;;;;;;;13.42;61.76;97385.41;6130276;23;20014;-27
2024/01/25 10:09:22;;;;;;;5.57;2.67;;;;;;;13.58;61.27;97385.44;6156205;23;20308;-26
2024/01/25 10:11:48;;;;;;;8.98;2.13;;;;;;;13.40;61.72;97393.22;6156012;23;20324;-27
2024/01/25 10:14:13;;;;;;;2.97;1.58;;;;;;;13.66;60.94;97384.88;6156300;23;20006;-26
2024/01/25 10:16:39;;;;;;;8.88;2.15;;;;;;;13.55;61.19;97386.28;6155834;23;20435;-26
2024/01/25 10:19:07;;;;;;;5.90;1.70;;;;;;;13.32;61.95;97380.94;6156063;23;20012;-26
2024/01/25 10:21:35;;;;;;;4.40;1.42;;;;;;;13.61;60.99;97377.19;6156137;23;20006;-26
2024/01/25 10:24:01;;;;;;;9.55;2.08;;;;;;;13.47;61.38;97382.19;6155843;23;20009;-27
2024/01/25 10:26:28;;;;;;;5.90;1.65;;;;;;;13.32;61.83;97380.94;6156038;23;20324;-26
2024/01/25 10:28:54;;;;;;;6.63;2.13;;;;;;;13.63;60.65;97384.94;6155688;23;20021;-26
2024/01/25 10:31:22;;;;;;;5.57;1.60;;;;;;;13.69;60.70;97372.34;6155960;23;20367;-26
2024/01/25 10:33:48;;;;;;;9.43;2.33;;;;;;;13.26;61.85;97367.81;6156460;23;20305;-26
2024/01/25 10:36:13;;;;;;;4.80;1.83;;;;;;;13.57;61.13;97365.59;6155673;23;20083;-26
2024/01/25 10:38:41;;;;;;;6.85;2.13;;;;;;;13.65;60.74;97366.22;6155985;23;20424;-26
2024/01/25 10:41:06;;;;;;;4.22;1.60;;;;;;;13.57;61.01;97356.66;6155427;23;20333;-26
2024/01/25 10:43:32;;;;;;;5.55;2.25;;;;;;;13.56;61.39;97352.41;6155890;23;20056;-26
2024/01/25 10:45:59;;;;;;;5.25;2.00;;;;;;;13.46;60.75;97345.22;6156078;23;19998;-26
2024/01/25 10:48:26;;;;;;;8.82;2.00;;;;;;;13.49;61.43;97342.41;6155590;23;20005;-27
2024/01/25 10:50:55;;;;;;;5.40;2.00;;;;;;;13.49;61.04;97330.75;6155781;23;20005;-26
2024/01/25 10:53:24;;;;;;;8.35;1.95;;;;;;;13.44;61.35;97339.44;6155896;23;20009;-26
2024/01/25 10:55:50;;;;;;;8.82;1.83;;;;;;;13.69;60.14;97339.66;6155860;23;20010;-26
2024/01/25 10:58:16;;;;;;;5.30;2.55;;;;;;;13.50;60.93;97341.22;6156140;23;20020;-26
2024/01/25 11:00:48;;;;;;;7.60;1.88;;;;;;;13.62;60.81;97339.78;6155597;23;20012;-27
2024/01/25 11:03:14;;;;;;;7.03;2.20;;;;;;;13.63;60.43;97338.59;6155862;23;20005;-26
2024/01/25 11:05:39;;;;;;;7.65;2.30;;;;;;;13.71;60.28;97334.53;6155394;23;20052;-27
2024/01/25 11:08:18;;;;;;;5.13;1.70;;;;;;;13.88;59.69;97325.16;6155758;23;20060;-26
2024/01/25 11:10:49;;;;;;;9.68;2.95;;;;;;;13.79;60.17;97324.22;6155416;23;20420;-26
2024/01/25 11:13:15;;;;;;;7.50;1.65;;;;;;;13.66;60.57;97326.84;6155755;23;20009;-27
2024/01/25 11:15:40;;;;;;;9.98;1.90;;;;;;;13.60;60.43;97320.38;6155142;23;20009;-26
2024/01/25 11:18:08;;;;;;;7.93;2.45;;;;;;;13.59;60.57;97319.63;6155502;23;20033;-26